Time;durP1;ratioP1;P1;durP2;ratioP2;P2;SDS_P1;SDS_P2;PMS_P1;PMS_P2;Temp;Humidity;BMP_temperature;BMP_pressure;BME280_temperature;BME280_humidity;BME280_pressure;Samples;Min_cycle;Max_cycle;Signal;HPM_P1;HPM_P2
2022/07/20 00:01:50;;;;;;;30.50;17.08;;;25.70;99.90;;;;;;4843886;29;20394;-81
2022/07/20 00:04:16;;;;;;;31.67;17.92;;;25.50;99.90;;;;;;4843755;29;20490;-81
2022/07/20 00:06:42;;;;;;;35.95;18.33;;;25.50;99.90;;;;;;4850380;29;20029;-81
2022/07/20 00:11:52;;;;;;;27.40;15.13;;;25.40;99.90;;;;;;4844184;29;20086;-81
2022/07/20 00:14:18;;;;;;;27.77;14.25;;;25.40;99.90;;;;;;4843748;29;20454;-81
2022/07/20 00:16:44;;;;;;;28.98;14.70;;;25.30;99.90;;;;;;4843576;29;20049;-81
2022/07/20 00:19:10;;;;;;;32.15;14.50;;;25.30;99.90;;;;;;4843093;29;20042;-81
2022/07/20 00:21:36;;;;;;;32.85;14.80;;;25.30;99.90;;;;;;4843404;29;20038;-81
2022/07/20 00:24:01;;;;;;;26.45;13.93;;;25.20;99.90;;;;;;4872359;29;20025;-81
2022/07/20 00:26:27;;;;;;;30.38;16.10;;;25.30;99.90;;;;;;4855037;29;20120;-81
2022/07/20 00:28:53;;;;;;;31.75;14.80;;;25.20;99.90;;;;;;4861931;29;20026;-80
2022/07/20 00:31:20;;;;;;;30.98;15.98;;;25.20;99.90;;;;;;4861715;29;20084;-81
2022/07/20 00:33:48;;;;;;;27.02;15.05;;;25.10;99.90;;;;;;4846893;29;20082;-81
2022/07/20 00:36:14;;;;;;;27.20;15.73;;;25.10;99.90;;;;;;4843186;29;20033;-81
2022/07/20 00:38:40;;;;;;;35.25;18.45;;;25.10;99.90;;;;;;4843073;29;20029;-80
2022/07/20 00:41:06;;;;;;;32.25;18.20;;;25.10;99.90;;;;;;4843300;29;20029;-81
2022/07/20 00:43:54;;;;;;;37.85;18.35;;;25.10;99.90;;;;;;4843512;29;20479;-80
2022/07/20 00:46:20;;;;;;;35.65;20.02;;;25.10;99.90;;;;;;4842939;29;20046;-81
2022/07/20 00:48:46;;;;;;;43.55;20.77;;;25.10;99.90;;;;;;4843066;29;20036;-80
2022/07/20 00:51:11;;;;;;;38.63;22.33;;;25.10;99.90;;;;;;4842987;29;20068;-81
2022/07/20 00:53:37;;;;;;;37.35;23.38;;;25.10;99.90;;;;;;4857458;29;20026;-81
2022/07/20 00:56:03;;;;;;;41.25;22.80;;;25.00;99.90;;;;;;4842991;29;20372;-81
2022/07/20 00:58:29;;;;;;;43.65;24.42;;;25.00;99.90;;;;;;4841818;29;20022;-81
2022/07/20 01:00:55;;;;;;;46.47;23.40;;;24.90;99.90;;;;;;4853458;29;20069;-81
2022/07/20 01:03:21;;;;;;;44.55;24.00;;;24.90;99.90;;;;;;4861300;29;20081;-80
2022/07/20 01:05:46;;;;;;;43.80;24.52;;;24.90;99.90;;;;;;4874710;29;20033;-81
2022/07/20 01:08:12;;;;;;;43.90;25.55;;;24.90;99.90;;;;;;4860251;29;20041;-81
2022/07/20 01:10:38;;;;;;;48.90;28.63;;;24.90;99.90;;;;;;4841943;29;20041;-80
2022/07/20 01:13:03;;;;;;;50.65;28.08;;;24.90;99.90;;;;;;4842592;29;20030;-81
2022/07/20 01:15:29;;;;;;;44.92;27.35;;;24.80;99.90;;;;;;4841958;29;20026;-81
2022/07/20 01:17:55;;;;;;;52.28;26.20;;;24.70;99.90;;;;;;4872143;29;20147;-80
2022/07/20 01:20:25;;;;;;;36.53;22.15;;;24.50;99.90;;;;;;4842361;29;20372;-81
2022/07/20 01:22:51;;;;;;;32.28;18.88;;;24.50;99.90;;;;;;4849797;29;20029;-81
2022/07/20 01:25:17;;;;;;;33.03;17.95;;;24.40;99.90;;;;;;4864763;29;20029;-81
2022/07/20 01:27:43;;;;;;;31.20;13.95;;;24.40;99.90;;;;;;4844553;29;20086;-80
2022/07/20 01:30:09;;;;;;;26.15;13.18;;;24.30;99.90;;;;;;4853917;29;20045;-80
2022/07/20 01:32:35;;;;;;;24.65;12.55;;;24.20;99.90;;;;;;4842446;29;20057;-81
2022/07/20 01:35:01;;;;;;;24.17;14.00;;;24.20;99.90;;;;;;4841899;29;20083;-80
2022/07/20 01:37:30;;;;;;;27.65;12.60;;;24.10;99.90;;;;;;4854605;29;20037;-80
2022/07/20 01:39:56;;;;;;;32.15;13.45;;;24.10;99.90;;;;;;4860845;29;20033;-80
2022/07/20 01:42:22;;;;;;;31.88;15.20;;;24.10;99.90;;;;;;4874867;29;20483;-80
2022/07/20 01:44:48;;;;;;;26.08;13.90;;;24.10;99.90;;;;;;4860536;29;20082;-80
2022/07/20 01:47:13;;;;;;;27.15;14.13;;;24.10;99.90;;;;;;4874724;29;20037;-81
2022/07/20 01:49:39;;;;;;;29.23;14.68;;;24.00;99.90;;;;;;4860330;29;20029;-80
2022/07/20 01:52:05;;;;;;;24.25;13.75;;;24.00;99.90;;;;;;4860531;29;20026;-81
2022/07/20 01:54:30;;;;;;;24.83;14.65;;;24.10;99.90;;;;;;4860672;29;20053;-81
2022/07/20 01:56:56;;;;;;;31.70;14.15;;;24.10;99.90;;;;;;4860540;29;20496;-81
2022/07/20 01:59:22;;;;;;;25.25;13.68;;;24.10;99.90;;;;;;4860695;29;20037;-80
2022/07/20 02:01:47;;;;;;;25.50;13.75;;;24.10;99.90;;;;;;4860465;29;20030;-81
2022/07/20 02:04:13;;;;;;;27.00;14.77;;;24.00;99.90;;;;;;4853902;29;20030;-81
2022/07/20 02:06:39;;;;;;;23.20;13.40;;;24.00;99.90;;;;;;4841043;29;20482;-80
2022/07/20 02:09:04;;;;;;;26.33;14.48;;;24.00;99.90;;;;;;4871581;29;20030;-81
2022/07/20 02:11:30;;;;;;;25.58;13.75;;;23.90;99.90;;;;;;4842165;29;20033;-81
2022/07/20 02:13:57;;;;;;;24.98;13.38;;;23.90;99.90;;;;;;4841729;29;20057;-80
2022/07/20 02:16:23;;;;;;;27.38;13.20;;;23.70;99.90;;;;;;4841883;29;20038;-80
2022/07/20 02:18:55;;;;;;;26.02;13.55;;;23.60;99.90;;;;;;4841647;29;20034;-81
2022/07/20 02:21:22;;;;;;;26.58;13.88;;;23.70;99.90;;;;;;4842140;29;20026;-80
2022/07/20 02:23:49;;;;;;;26.75;13.63;;;23.70;99.90;;;;;;4855926;29;20410;-80
2022/07/20 02:26:15;;;;;;;28.20;13.32;;;23.80;99.90;;;;;;4841874;29;20054;-80
2022/07/20 02:28:41;;;;;;;25.25;13.57;;;23.70;99.90;;;;;;4841937;29;20077;-80
2022/07/20 02:31:07;;;;;;;26.10;12.75;;;23.60;99.90;;;;;;4841053;29;20422;-80
2022/07/20 02:33:33;;;;;;;22.92;12.43;;;23.60;99.90;;;;;;4841582;29;20105;-80
2022/07/20 02:35:59;;;;;;;21.58;12.18;;;23.70;99.90;;;;;;4841644;29;20101;-80
2022/07/20 02:38:26;;;;;;;23.95;11.55;;;23.70;99.90;;;;;;4841848;29;20038;-80
2022/07/20 02:40:51;;;;;;;25.48;12.80;;;23.60;99.90;;;;;;4841027;29;20497;-80
2022/07/20 02:43:17;;;;;;;22.25;10.95;;;23.70;99.90;;;;;;4841507;29;20109;-80
2022/07/20 02:45:43;;;;;;;23.98;12.07;;;23.40;99.90;;;;;;4851897;29;20078;-80
2022/07/20 02:48:08;;;;;;;23.65;10.95;;;23.30;99.90;;;;;;4877298;29;20403;-80
2022/07/20 02:50:37;;;;;;;21.98;11.05;;;23.40;99.90;;;;;;4863768;29;20100;-80
2022/07/20 02:53:04;;;;;;;19.67;11.13;;;23.50;99.90;;;;;;4877753;29;20025;-80
2022/07/20 02:55:30;;;;;;;25.15;11.63;;;23.40;99.90;;;;;;4863788;29;20491;-80
2022/07/20 02:57:56;;;;;;;25.60;11.73;;;23.30;99.90;;;;;;4862958;29;20034;-80
2022/07/20 03:00:22;;;;;;;20.77;10.50;;;23.40;99.90;;;;;;4851400;29;20033;-80
2022/07/20 03:02:48;;;;;;;18.48;10.32;;;23.40;99.90;;;;;;4852464;29;20048;-80
2022/07/20 03:05:14;;;;;;;21.80;10.23;;;23.40;99.90;;;;;;4863521;29;20030;-80
2022/07/20 03:07:40;;;;;;;20.48;10.27;;;23.50;99.90;;;;;;4863190;29;20431;-80
2022/07/20 03:10:07;;;;;;;22.23;10.20;;;23.40;99.90;;;;;;4863106;29;20022;-80
2022/07/20 03:12:33;;;;;;;20.13;9.82;;;23.50;99.90;;;;;;4877582;29;20064;-80
2022/07/20 03:14:59;;;;;;;21.35;9.38;;;23.50;99.90;;;;;;4862994;29;20049;-80
2022/07/20 03:17:25;;;;;;;15.23;8.57;;;23.60;99.90;;;;;;4863495;29;20029;-80
2022/07/20 03:19:51;;;;;;;14.63;6.55;;;23.60;99.90;;;;;;4863214;29;20062;-80
2022/07/20 03:22:17;;;;;;;15.90;5.68;;;23.50;99.90;;;;;;4863169;29;20036;-80
2022/07/20 03:24:42;;;;;;;10.75;4.20;;;23.40;99.90;;;;;;4863129;29;20029;-80
2022/07/20 03:27:08;;;;;;;10.30;3.80;;;23.40;99.90;;;;;;4863029;29;20425;-81
2022/07/20 03:29:35;;;;;;;14.60;3.17;;;23.30;99.90;;;;;;4862672;29;20042;-81
2022/07/20 03:32:01;;;;;;;9.07;3.15;;;23.30;99.90;;;;;;4877051;29;20045;-80
2022/07/20 03:34:26;;;;;;;15.93;3.50;;;23.40;99.90;;;;;;4862982;29;20026;-80
2022/07/20 03:36:52;;;;;;;11.02;3.58;;;23.40;99.90;;;;;;4863123;29;20104;-80
2022/07/20 03:39:18;;;;;;;18.48;4.15;;;23.40;99.90;;;;;;4862707;29;20030;-80
2022/07/20 03:41:44;;;;;;;11.00;3.40;;;23.30;99.90;;;;;;4853501;29;20029;-80
2022/07/20 03:44:10;;;;;;;16.02;3.85;;;23.20;99.90;;;;;;4862218;29;20512;-80
2022/07/20 03:46:35;;;;;;;13.07;3.92;;;23.30;99.90;;;;;;4862985;29;20037;-80
2022/07/20 03:49:01;;;;;;;14.55;3.88;;;23.20;99.90;;;;;;4862876;29;20044;-80
2022/07/20 03:51:27;;;;;;;12.80;3.45;;;23.20;99.90;;;;;;4853988;29;20033;-80
2022/07/20 03:53:53;;;;;;;14.48;2.92;;;23.20;99.90;;;;;;4844181;29;20090;-80
2022/07/20 03:56:19;;;;;;;11.70;3.60;;;23.00;99.90;;;;;;4844017;29;20030;-80
2022/07/20 03:58:44;;;;;;;14.07;4.07;;;23.10;99.90;;;;;;4841617;29;20034;-80
2022/07/20 04:01:10;;;;;;;10.80;3.45;;;23.10;99.90;;;;;;4844364;29;20082;-80
2022/07/20 04:03:36;;;;;;;9.45;2.83;;;23.10;99.90;;;;;;4873625;29;20022;-80
2022/07/20 04:06:02;;;;;;;11.02;2.75;;;23.10;99.90;;;;;;4843898;29;20026;-80
2022/07/20 04:08:28;;;;;;;9.57;3.08;;;23.20;99.90;;;;;;4843722;29;20436;-80
2022/07/20 04:10:53;;;;;;;10.98;3.10;;;23.10;99.90;;;;;;4843832;29;20034;-80
2022/07/20 04:13:20;;;;;;;12.45;3.15;;;23.00;99.90;;;;;;4843496;29;20033;-80
2022/07/20 04:15:45;;;;;;;11.02;3.50;;;23.00;99.90;;;;;;4844006;29;20065;-75
2022/07/20 04:18:11;;;;;;;9.63;3.10;;;23.00;99.90;;;;;;4843540;29;20037;-79
2022/07/20 04:20:38;;;;;;;10.77;3.40;;;23.00;99.90;;;;;;4843660;29;20041;-76
2022/07/20 04:23:03;;;;;;;11.80;3.17;;;23.00;99.90;;;;;;4843321;29;20058;-76
2022/07/20 04:25:29;;;;;;;10.60;3.38;;;23.00;99.90;;;;;;4843891;29;20117;-75
2022/07/20 04:27:55;;;;;;;9.13;2.90;;;23.00;99.90;;;;;;4842959;29;20034;-76
2022/07/20 04:30:20;;;;;;;18.55;3.05;;;22.90;99.90;;;;;;4843296;29;20061;-76
2022/07/20 04:32:46;;;;;;;14.02;3.63;;;22.80;99.90;;;;;;4843615;29;20563;-76
2022/07/20 04:35:12;;;;;;;9.57;3.22;;;22.90;99.90;;;;;;4843103;29;20506;-76
2022/07/20 04:37:38;;;;;;;8.20;2.95;;;22.90;99.90;;;;;;4843512;29;20041;-80
2022/07/20 04:40:05;;;;;;;7.97;3.30;;;22.90;99.90;;;;;;4843212;29;20030;-80
2022/07/20 04:42:31;;;;;;;17.25;3.00;;;22.90;99.90;;;;;;4859322;29;20025;-80
2022/07/20 04:44:57;;;;;;;10.48;3.88;;;22.80;99.90;;;;;;4860919;29;20090;-79
2022/07/20 04:47:22;;;;;;;8.27;3.55;;;22.90;99.90;;;;;;4861521;29;20036;-79
2022/07/20 04:49:48;;;;;;;14.63;3.33;;;22.80;99.90;;;;;;4861893;29;20026;-79
2022/07/20 04:52:14;;;;;;;8.23;2.75;;;22.70;99.90;;;;;;4861411;29;20026;-79
2022/07/20 04:54:41;;;;;;;10.35;2.72;;;22.70;99.90;;;;;;4861697;29;20420;-79
2022/07/20 04:57:07;;;;;;;7.22;2.95;;;22.70;99.90;;;;;;4861133;29;20026;-79
2022/07/20 04:59:33;;;;;;;13.27;3.30;;;22.70;99.90;;;;;;4867331;29;20120;-79
2022/07/20 05:01:58;;;;;;;10.52;3.17;;;22.70;99.90;;;;;;4843135;29;20054;-79
2022/07/20 05:04:24;;;;;;;11.48;3.22;;;22.70;99.90;;;;;;4842997;29;20045;-79
2022/07/20 05:06:50;;;;;;;9.90;2.92;;;22.70;99.90;;;;;;4842986;29;20044;-79
2022/07/20 05:09:15;;;;;;;10.82;3.03;;;22.60;99.90;;;;;;4872053;29;20501;-79
2022/07/20 05:11:41;;;;;;;11.43;2.83;;;22.60;99.90;;;;;;4842640;29;20033;-79
2022/07/20 05:14:08;;;;;;;11.00;3.70;;;22.60;99.90;;;;;;4870684;29;20033;-79
2022/07/20 05:16:34;;;;;;;7.65;2.70;;;22.70;99.90;;;;;;4842794;29;20375;-80
2022/07/20 05:19:00;;;;;;;12.35;3.20;;;22.70;99.90;;;;;;4872610;29;20040;-80
2022/07/20 05:21:26;;;;;;;7.85;2.95;;;22.60;99.90;;;;;;4842494;29;20037;-80
2022/07/20 05:23:52;;;;;;;8.07;3.20;;;22.70;99.90;;;;;;4842609;29;20109;-79
2022/07/20 05:26:17;;;;;;;12.82;4.10;;;22.70;99.90;;;;;;4842327;29;20101;-79
2022/07/20 05:28:43;;;;;;;9.95;3.63;;;22.70;99.90;;;;;;4842370;29;20144;-80
2022/07/20 05:31:09;;;;;;;10.25;3.40;;;22.80;99.90;;;;;;4842291;29;20050;-79
2022/07/20 05:33:36;;;;;;;11.38;3.75;;;22.80;99.90;;;;;;4841244;29;20030;-80
2022/07/20 05:36:02;;;;;;;8.95;3.53;;;22.70;99.90;;;;;;4823062;29;20404;-79
2022/07/20 05:38:29;;;;;;;7.95;3.45;;;22.70;99.90;;;;;;4824098;29;20034;-79
2022/07/20 05:40:55;;;;;;;10.70;3.80;;;22.70;99.90;;;;;;4824013;29;20026;-79
2022/07/20 05:43:21;;;;;;;8.10;3.60;;;22.70;99.90;;;;;;4831132;29;20076;-79
2022/07/20 05:45:47;;;;;;;16.10;4.68;;;22.70;99.90;;;;;;4842262;29;20077;-79
2022/07/20 05:48:12;;;;;;;11.27;4.15;;;22.60;99.90;;;;;;4841719;29;20042;-81
2022/07/20 05:50:39;;;;;;;11.20;3.95;;;23.00;99.90;;;;;;4840944;29;20030;-78
2022/07/20 05:53:06;;;;;;;7.22;3.88;;;23.30;99.90;;;;;;4842414;29;20045;-78
2022/07/20 05:55:33;;;;;;;12.52;4.13;;;23.40;99.90;;;;;;4842027;29;20085;-78
2022/07/20 05:57:59;;;;;;;7.40;3.58;;;23.40;99.90;;;;;;4842354;29;20038;-77
2022/07/20 06:00:24;;;;;;;8.35;4.00;;;23.60;99.90;;;;;;4842150;29;20032;-77
2022/07/20 06:02:50;;;;;;;11.82;4.15;;;23.70;99.90;;;;;;4842570;29;20166;-79
2022/07/20 06:05:15;;;;;;;12.15;4.20;;;23.80;99.90;;;;;;4841528;29;20083;-80
2022/07/20 06:07:41;;;;;;;10.85;3.95;;;23.70;99.90;;;;;;4841399;29;20166;-77
2022/07/20 06:10:07;;;;;;;10.32;3.53;;;23.50;99.90;;;;;;4841208;29;20045;-77
2022/07/20 06:12:33;;;;;;;14.82;4.68;;;23.40;99.90;;;;;;4841245;29;20041;-77
2022/07/20 06:14:59;;;;;;;11.65;3.45;;;23.50;99.90;;;;;;4841424;29;20391;-77
2022/07/20 06:17:33;;;;;;;10.55;3.90;;;23.60;99.90;;;;;;4841632;29;20438;-77
2022/07/20 06:20:02;;;;;;;8.05;3.40;;;23.60;99.90;;;;;;4841777;29;20055;-77
2022/07/20 06:22:28;;;;;;;10.40;3.95;;;23.60;99.90;;;;;;4850728;29;20065;-78
2022/07/20 06:24:53;;;;;;;12.05;3.33;;;23.60;99.90;;;;;;4844662;29;20072;-77
2022/07/20 06:27:19;;;;;;;13.15;3.20;;;23.50;99.90;;;;;;4845327;29;20526;-77
2022/07/20 06:29:45;;;;;;;7.55;3.05;;;23.40;99.90;;;;;;4845447;29;20444;-77
2022/07/20 06:32:10;;;;;;;8.30;3.30;;;23.50;99.90;;;;;;4859695;29;20071;-77
2022/07/20 06:34:36;;;;;;;8.90;3.40;;;23.30;99.90;;;;;;4845764;29;20147;-77
2022/07/20 06:37:01;;;;;;;10.30;3.50;;;23.40;99.90;;;;;;4845163;29;20441;-77
2022/07/20 06:39:27;;;;;;;10.60;3.47;;;23.40;99.90;;;;;;4845145;29;20122;-77
2022/07/20 06:41:53;;;;;;;8.40;3.13;;;23.50;99.90;;;;;;4845519;29;20471;-77
2022/07/20 06:44:18;;;;;;;7.65;3.30;;;23.50;99.90;;;;;;4845335;29;20044;-77
2022/07/20 06:46:44;;;;;;;9.38;3.75;;;23.60;99.90;;;;;;4845339;29;20042;-77
2022/07/20 06:49:10;;;;;;;13.85;4.50;;;23.50;99.90;;;;;;4845582;29;20018;-77
2022/07/20 06:51:35;;;;;;;10.65;4.63;;;23.70;99.90;;;;;;4845480;29;20034;-77
2022/07/20 06:54:01;;;;;;;14.15;6.63;;;23.90;99.90;;;;;;4845031;29;20026;-77
2022/07/20 06:56:27;;;;;;;17.33;7.13;;;23.80;99.90;;;;;;4845341;29;20101;-81
2022/07/20 06:58:52;;;;;;;20.80;7.75;;;23.80;99.90;;;;;;4845292;29;20435;-81
2022/07/20 07:01:18;;;;;;;14.20;6.25;;;23.60;99.90;;;;;;4845024;29;20041;-80
2022/07/20 07:03:44;;;;;;;20.95;6.43;;;23.70;99.90;;;;;;4844850;29;20483;-81
2022/07/20 07:06:09;;;;;;;12.32;5.95;;;23.70;99.90;;;;;;4844913;29;20061;-81
2022/07/20 07:08:35;;;;;;;14.63;6.20;;;23.40;99.90;;;;;;4857546;29;20536;-79
2022/07/20 07:11:01;;;;;;;14.93;6.07;;;23.30;99.90;;;;;;4853966;29;20038;-79
2022/07/20 07:13:26;;;;;;;14.85;6.13;;;23.20;99.90;;;;;;4858768;29;20517;-78
2022/07/20 07:15:52;;;;;;;10.27;3.88;;;23.30;99.90;;;;;;4826756;29;20098;-78
2022/07/20 07:18:18;;;;;;;8.65;3.33;;;23.30;99.90;;;;;;4826374;29;20061;-79
2022/07/20 07:20:43;;;;;;;9.05;2.90;;;23.30;99.90;;;;;;4826539;29;20038;-79
2022/07/20 07:23:10;;;;;;;16.75;6.20;;;23.30;99.90;;;;;;4837218;29;20030;-79
2022/07/20 07:25:36;;;;;;;14.88;5.18;;;23.30;99.90;;;;;;4844676;29;20030;-79
2022/07/20 07:28:02;;;;;;;15.48;6.43;;;23.30;99.90;;;;;;4874331;29;20102;-79
2022/07/20 07:30:28;;;;;;;16.35;6.25;;;23.20;99.90;;;;;;4843409;29;20526;-79
2022/07/20 07:32:53;;;;;;;21.50;6.45;;;23.20;99.90;;;;;;4843898;29;20022;-80
2022/07/20 07:35:19;;;;;;;13.45;5.10;;;23.30;99.90;;;;;;4858397;29;20534;-79
2022/07/20 07:37:45;;;;;;;8.52;3.58;;;23.20;99.90;;;;;;4851211;29;20394;-79
2022/07/20 07:40:11;;;;;;;9.68;3.38;;;23.30;99.90;;;;;;4844703;29;20071;-78
2022/07/20 07:42:37;;;;;;;13.43;3.20;;;23.20;99.90;;;;;;4843906;29;20499;-78
2022/07/20 07:45:06;;;;;;;10.23;3.17;;;23.30;99.90;;;;;;4844885;29;20042;-78
2022/07/20 07:47:33;;;;;;;7.82;3.30;;;23.40;99.90;;;;;;4844460;29;20030;-76
2022/07/20 07:50:00;;;;;;;10.20;3.45;;;23.40;99.90;;;;;;4844162;29;20033;-77
2022/07/20 07:52:26;;;;;;;9.30;2.92;;;23.60;99.90;;;;;;4843880;29;20026;-77
2022/07/20 07:54:51;;;;;;;10.43;2.80;;;23.50;99.90;;;;;;4843370;29;20081;-77
2022/07/20 07:57:17;;;;;;;5.57;2.38;;;23.60;99.80;;;;;;4843243;29;20033;-78
2022/07/20 07:59:43;;;;;;;7.82;2.30;;;23.70;99.70;;;;;;4851881;29;20037;-78
2022/07/20 08:02:09;;;;;;;8.93;2.40;;;23.70;99.50;;;;;;4843873;29;20609;-78
2022/07/20 09:46:43;;;;;;;16.35;3.60;;;26.70;90.20;;;;;;4897176;24;20733;-80
2022/07/20 09:49:10;;;;;;;7.18;3.65;;;26.70;89.50;;;;;;4842213;29;20104;-80
2022/07/20 09:51:38;;;;;;;11.63;3.80;;;26.70;89.80;;;;;;4842537;29;20037;-78
2022/07/20 09:54:10;;;;;;;11.13;4.05;;;26.60;88.90;;;;;;4842204;29;20022;-81
2022/07/20 09:56:39;;;;;;;10.38;3.70;;;26.60;89.80;;;;;;4841163;29;20026;-74
2022/07/20 09:59:06;;;;;;;10.38;3.47;;;26.70;89.90;;;;;;4842084;29;20037;-76
2022/07/20 10:01:35;;;;;;;8.65;3.95;;;26.60;89.10;;;;;;4839878;29;20034;-74
2022/07/20 10:04:03;;;;;;;11.38;3.50;;;26.60;90.30;;;;;;4841319;29;20032;-76
2022/07/20 10:06:29;;;;;;;9.68;3.17;;;26.70;90.60;;;;;;4841660;29;20018;-78
2022/07/20 10:08:56;;;;;;;8.20;3.72;;;27.20;90.10;;;;;;4841915;29;20466;-80
2022/07/20 10:11:23;;;;;;;12.02;4.13;;;27.10;85.10;;;;;;4842092;29;20030;-81
2022/07/20 10:13:51;;;;;;;9.75;4.03;;;27.10;87.10;;;;;;4840755;29;20036;-82
2022/07/20 10:16:37;;;;;;;9.60;4.20;;;27.50;86.40;;;;;;4841878;29;20117;-81
2022/07/20 10:19:04;;;;;;;9.35;4.07;;;28.40;83.00;;;;;;4841832;29;20041;-81
2022/07/20 10:21:41;;;;;;;12.23;4.07;;;28.30;79.80;;;;;;4842115;29;20394;-81
2022/07/20 10:24:15;;;;;;;12.00;4.47;;;28.10;84.00;;;;;;4841970;29;20057;-81
2022/07/20 10:26:41;;;;;;;7.55;4.03;;;28.40;80.60;;;;;;4845341;29;20402;-81
2022/07/20 10:29:07;;;;;;;9.05;4.43;;;28.60;80.10;;;;;;4841532;29;20030;-90
2022/07/20 10:31:49;;;;;;;9.25;3.63;;;28.80;79.60;;;;;;4841486;29;20098;-80
2022/07/20 10:34:34;;;;;;;11.27;3.83;;;28.80;81.00;;;;;;4837977;29;20031;-79
2022/07/20 10:37:36;;;;;;;9.63;4.32;;;28.90;79.50;;;;;;4834274;29;20083;-81
2022/07/20 10:40:19;;;;;;;8.50;4.00;;;29.10;76.60;;;;;;4836297;29;20022;-79
2022/07/20 10:43:14;;;;;;;10.57;4.40;;;29.30;76.60;;;;;;4839687;29;20074;-80
2022/07/20 10:45:40;;;;;;;13.18;4.60;;;29.20;75.90;;;;;;4842135;29;20087;-78
2022/07/20 10:48:11;;;;;;;14.95;5.28;;;28.80;76.00;;;;;;4822396;29;20038;-79
2022/07/20 10:50:52;;;;;;;13.88;4.57;;;29.00;76.20;;;;;;4836661;29;20106;-82
2022/07/20 10:53:18;;;;;;;11.07;5.25;;;28.90;76.50;;;;;;4815525;29;20562;-80
2022/07/20 10:56:02;;;;;;;7.47;4.20;;;28.60;78.10;;;;;;4819323;29;20109;-83
2022/07/20 10:58:36;;;;;;;8.95;4.53;;;28.40;79.80;;;;;;4822639;29;20407;-81
2022/07/20 11:01:08;;;;;;;10.00;4.90;;;28.90;78.00;;;;;;4822007;29;20064;-80
2022/07/20 11:03:41;;;;;;;12.23;4.60;;;28.90;76.30;;;;;;4822419;29;20085;-79
2022/07/20 11:06:07;;;;;;;14.55;5.05;;;29.00;76.30;;;;;;4840358;29;20062;-80
2022/07/20 11:08:34;;;;;;;9.13;4.80;;;28.80;74.60;;;;;;4825237;29;20114;-79
2022/07/20 11:11:01;;;;;;;8.55;4.10;;;29.30;74.80;;;;;;4825910;29;20075;-80
2022/07/20 11:13:27;;;;;;;18.25;3.78;;;29.50;74.50;;;;;;4825906;29;20030;-79
2022/07/20 11:15:58;;;;;;;9.25;4.32;;;29.70;73.40;;;;;;4825998;29;20037;-79
2022/07/20 11:18:27;;;;;;;8.38;4.22;;;29.80;72.60;;;;;;4823504;29;20036;-80
2022/07/20 11:20:57;;;;;;;8.77;3.97;;;29.90;73.00;;;;;;4826164;29;20031;-79
2022/07/20 11:23:37;;;;;;;12.07;4.13;;;29.90;73.00;;;;;;4819391;29;20027;-80
2022/07/20 11:26:02;;;;;;;9.07;3.90;;;29.90;72.60;;;;;;4825756;29;20499;-80
2022/07/20 11:28:32;;;;;;;11.25;3.97;;;29.90;71.60;;;;;;4828313;29;20109;-79
2022/07/20 11:31:00;;;;;;;10.57;3.78;;;30.20;69.10;;;;;;4827189;29;20542;-79
2022/07/20 11:33:29;;;;;;;10.88;3.75;;;30.00;71.90;;;;;;4829653;29;20027;-79
2022/07/20 11:35:59;;;;;;;15.70;4.43;;;30.00;69.90;;;;;;4826170;29;20487;-79
2022/07/20 11:38:53;;;;;;;7.60;3.90;;;29.90;67.60;;;;;;4829572;29;20054;-79
2022/07/20 11:41:22;;;;;;;11.20;4.43;;;29.90;68.50;;;;;;4808286;29;20047;-79
2022/07/20 11:43:50;;;;;;;8.82;4.55;;;29.90;68.40;;;;;;4807817;29;20030;-80
2022/07/20 11:46:21;;;;;;;8.48;4.03;;;30.10;68.00;;;;;;4807865;29;20053;-79
2022/07/20 11:48:52;;;;;;;14.70;4.38;;;29.90;69.50;;;;;;4810528;29;20177;-79
2022/07/20 11:51:18;;;;;;;9.02;3.72;;;30.40;69.20;;;;;;4825347;29;20026;-79
2022/07/20 11:53:44;;;;;;;15.50;4.80;;;30.60;68.20;;;;;;4825604;29;20040;-84
2022/07/20 11:56:13;;;;;;;11.43;4.80;;;30.40;68.20;;;;;;4825445;29;20105;-82
2022/07/20 11:58:40;;;;;;;11.40;4.32;;;30.60;67.60;;;;;;4824112;29;20497;-81
2022/07/20 12:01:11;;;;;;;14.63;4.65;;;30.70;67.20;;;;;;4825512;29;20066;-80
2022/07/20 12:03:40;;;;;;;8.93;4.50;;;30.70;66.70;;;;;;4826005;29;20041;-80
2022/07/20 12:06:08;;;;;;;8.07;4.18;;;30.60;67.40;;;;;;4825660;29;20113;-80
2022/07/20 12:08:34;;;;;;;17.60;4.60;;;30.40;67.60;;;;;;4825787;29;20031;-80
2022/07/20 12:11:01;;;;;;;7.93;3.80;;;30.70;67.90;;;;;;4824317;29;20033;-81
2022/07/20 12:13:27;;;;;;;11.55;4.07;;;30.60;67.60;;;;;;4825190;29;20105;-80
2022/07/20 12:16:04;;;;;;;11.05;4.78;;;31.20;66.40;;;;;;4824657;29;20031;-79
2022/07/20 12:18:45;;;;;;;11.13;4.25;;;31.00;65.70;;;;;;4817912;29;20050;-79
2022/07/20 12:21:16;;;;;;;11.40;4.20;;;31.10;67.20;;;;;;4824874;29;20518;-79
2022/07/20 12:23:43;;;;;;;;;;;31.30;66.00;;;;;;4825454;29;20030;-85
2022/07/20 12:26:25;;;;;;;9.13;4.88;;;31.20;65.10;;;;;;4824714;29;19912;-80
2022/07/20 12:28:51;;;;;;;;;;;31.30;66.40;;;;;;4825427;29;20101;-79
2022/07/20 12:31:19;;;;;;;11.27;4.38;;;31.20;65.40;;;;;;4832006;29;19998;-80
2022/07/20 12:34:00;;;;;;;8.43;4.00;;;31.80;65.30;;;;;;4835989;29;20031;-79
2022/07/20 12:36:41;;;;;;;12.68;5.18;;;31.20;64.80;;;;;;4825114;29;20037;-79
2022/07/20 12:39:28;;;;;;;9.88;5.15;;;31.10;64.20;;;;;;4825040;29;20147;-80
2022/07/20 12:42:30;;;;;;;9.07;4.78;;;30.80;65.80;;;;;;4827439;29;20131;-79
2022/07/20 12:45:01;;;;;;;10.75;4.97;;;31.00;64.70;;;;;;4841004;29;20064;-80
2022/07/20 12:47:27;;;;;;;12.00;5.22;;;31.20;63.90;;;;;;4840746;29;20145;-79
2022/07/20 12:49:53;;;;;;;11.48;4.95;;;31.20;64.00;;;;;;4840742;29;20109;-79
2022/07/20 12:52:19;;;;;;;10.25;5.03;;;31.20;65.70;;;;;;4840916;29;20038;-79
2022/07/20 12:54:45;;;;;;;9.60;5.15;;;31.00;65.60;;;;;;4840993;29;20033;-79
2022/07/20 12:57:14;;;;;;;13.85;5.07;;;30.60;65.10;;;;;;4840644;29;20406;-79
2022/07/20 12:59:39;;;;;;;11.57;5.40;;;30.80;66.10;;;;;;4840226;29;20040;-79
2022/07/20 13:02:05;;;;;;;11.68;5.65;;;30.70;65.70;;;;;;4848340;29;20108;-79
2022/07/20 13:04:31;;;;;;;12.70;5.53;;;30.20;66.10;;;;;;4844221;29;20205;-79
2022/07/20 13:06:56;;;;;;;12.15;5.45;;;30.50;66.40;;;;;;4843725;29;20203;-79
2022/07/20 13:09:24;;;;;;;12.27;5.40;;;30.30;66.40;;;;;;4851447;29;20040;-79
2022/07/20 13:11:50;;;;;;;8.40;4.80;;;30.40;67.20;;;;;;4846782;29;20042;-79
2022/07/20 13:14:19;;;;;;;11.32;4.70;;;31.00;65.50;;;;;;4853783;29;20029;-79
2022/07/20 13:16:46;;;;;;;9.95;4.65;;;31.10;64.00;;;;;;4838828;29;20511;-79
2022/07/20 13:19:12;;;;;;;12.73;5.35;;;31.30;62.80;;;;;;4825036;29;20091;-79
2022/07/20 13:21:38;;;;;;;10.65;5.03;;;31.60;62.90;;;;;;4813141;29;20376;-78
2022/07/20 13:24:04;;;;;;;14.30;5.35;;;31.80;61.80;;;;;;4824946;29;20018;-79
2022/07/20 13:26:30;;;;;;;10.55;4.75;;;31.70;61.30;;;;;;4832395;29;20034;-79
2022/07/20 13:28:55;;;;;;;15.02;4.80;;;31.90;61.80;;;;;;4823022;29;20059;-80
2022/07/20 13:31:21;;;;;;;12.60;5.30;;;31.60;62.10;;;;;;4825720;29;20086;-80
2022/07/20 13:33:47;;;;;;;11.75;5.47;;;31.20;62.60;;;;;;4822338;29;20026;-79
2022/07/20 13:36:12;;;;;;;8.40;4.40;;;30.90;63.20;;;;;;4821296;29;20499;-81
2022/07/20 13:38:39;;;;;;;11.05;5.35;;;30.80;64.40;;;;;;4821824;29;20449;-80
2022/07/20 13:41:05;;;;;;;23.42;6.10;;;30.70;64.80;;;;;;4822231;29;20407;-79
2022/07/20 13:43:31;;;;;;;13.90;5.60;;;30.40;66.10;;;;;;4823127;29;20030;-81
2022/07/20 13:45:58;;;;;;;11.55;5.47;;;30.20;67.70;;;;;;4823260;29;20427;-80
2022/07/20 13:48:24;;;;;;;9.50;4.75;;;30.00;68.20;;;;;;4823160;29;20061;-81
2022/07/20 13:50:51;;;;;;;14.35;5.53;;;29.90;67.80;;;;;;4823999;29;20030;-81
2022/07/20 13:53:17;;;;;;;8.07;4.60;;;29.90;68.20;;;;;;4824871;29;20026;-80
2022/07/20 13:55:44;;;;;;;10.45;5.22;;;30.20;67.60;;;;;;4830476;29;20110;-79
2022/07/20 13:58:09;;;;;;;18.05;6.25;;;30.70;66.70;;;;;;4822678;29;20487;-80
2022/07/20 14:00:35;;;;;;;9.77;5.55;;;30.80;66.30;;;;;;4822866;29;20034;-80
2022/07/20 14:03:01;;;;;;;12.40;5.70;;;31.10;64.30;;;;;;4842969;29;20068;-80
2022/07/20 14:05:27;;;;;;;10.82;6.05;;;31.30;63.50;;;;;;4823438;29;20031;-80
2022/07/20 14:07:53;;;;;;;11.10;5.60;;;31.30;62.10;;;;;;4822186;29;20033;-79
2022/07/20 14:10:19;;;;;;;11.60;5.30;;;31.10;63.60;;;;;;4823648;29;20038;-80
2022/07/20 14:12:45;;;;;;;11.43;5.55;;;31.30;62.80;;;;;;4823391;29;20484;-80
2022/07/20 14:15:11;;;;;;;12.98;5.68;;;31.40;62.70;;;;;;4823527;29;20051;-80
2022/07/20 14:17:39;;;;;;;12.82;5.72;;;30.80;63.10;;;;;;4820342;29;20193;-80
2022/07/20 14:20:07;;;;;;;14.02;6.13;;;30.40;64.80;;;;;;4823080;29;20547;-79
2022/07/20 14:22:33;;;;;;;19.30;5.10;;;30.20;65.60;;;;;;4822527;29;20031;-79
2022/07/20 14:24:59;;;;;;;13.30;5.00;;;30.00;66.90;;;;;;4823556;29;20026;-80